Parma — V2OZ9 — position and weather

sailwx.info

Track history (hours):
 
Tides and Currents Weather Stations Pressure Air Temp Water Temp Dewpoint Dewpoint Depression Visibility Wind Speed Wind Dir Waves Ship Positions

Parma

Last reported at 2015-Jul-22 00:33 UTC. Time now 2015-Aug-04 07:26 UTC.
Position N 53°26' W 004°03'.
Warning: this ship's position is 13 days out of date.

MMSI: 279073176.

Date/timePositionNaut miles runAvg speedWind from/ knotsBaromVisibWave heightAir tempDewpointWater temp
2015-Jul-22 00:33N 53°26' W 004°03'9 9.0
2015-Jul-21 23:33N 53°31' W 003°51'9 8.6
2015-Jul-21 22:33N 53°33' W 003°37'9 9.3
2015-Jul-21 21:33N 53°32' W 003°22'9 9.2
2015-Jul-21 20:33N 53°31' W 003°06'6 5.7
2015-Jul-21 19:33N 53°26' W 003°01'1 0.6
2015-Jul-21 18:31N 53°26' W 003°00'0 0.2
2015-Jul-21 17:31N 53°26' W 003°00'0 0.0
2015-Jul-21 16:28N 53°26' W 003°00'0 0.0
2015-Jul-21 15:31N 53°26' W 003°00'0 0.0
2015-Jul-21 14:31N 53°26' W 003°00'0 0.0
2015-Jul-21 13:28N 53°26' W 003°00'0 0.0
2015-Jul-21 12:31N 53°26' W 003°00'0 0.0
2015-Jul-21 11:28N 53°26' W 003°00'0 0.0
2015-Jul-21 10:25N 53°26' W 003°00'0 0.0
2015-Jul-21 09:28N 53°26' W 003°00'0 0.0
2015-Jul-21 08:31N 53°26' W 003°00'0 0.0
2015-Jul-21 07:31N 53°26' W 003°00'0 0.0
2015-Jul-21 06:28N 53°26' W 003°00'0 0.0
2015-Jul-21 05:31N 53°26' W 003°00'0 0.0
2015-Jul-21 04:31N 53°26' W 003°00'0 0.0
2015-Jul-21 03:31N 53°26' W 003°00'0 0.0
2015-Jul-21 02:28N 53°26' W 003°00'0 0.0
2015-Jul-21 01:31N 53°26' W 003°00'0 0.0
2015-Jul-21 00:31N 53°26' W 003°00'0 0.0
2015-Jul-20 23:25N 53°26' W 003°00'0 0.0
2015-Jul-20 22:31N 53°26' W 003°00'0 0.0
2015-Jul-20 21:31N 53°26' W 003°00'0 0.0
2015-Jul-20 20:31N 53°26' W 003°00'0 0.0
2015-Jul-20 19:25N 53°26' W 003°00'0 0.0
2015-Jul-20 18:28N 53°26' W 003°00'0 0.0
2015-Jul-20 17:31N 53°26' W 003°00'0 0.0
2015-Jul-20 16:28N 53°26' W 003°00'0 0.0
2015-Jul-20 15:31N 53°26' W 003°00'0 0.0
2015-Jul-20 14:31N 53°26' W 003°00'0 0.0
2015-Jul-20 13:28N 53°26' W 003°00'0 0.0
2015-Jul-20 12:31N 53°26' W 003°00'0 0.0
2015-Jul-20 11:31N 53°26' W 003°00'0 0.0
2015-Jul-20 10:25N 53°26' W 003°00'0 0.0
2015-Jul-20 09:31N 53°26' W 003°00'0 0.0
2015-Jul-20 08:31N 53°26' W 003°00'0 0.0
2015-Jul-20 07:31N 53°26' W 003°00'0 0.0
2015-Jul-20 06:25N 53°26' W 003°00'0 0.0
2015-Jul-20 05:31N 53°26' W 003°00'0 0.0
2015-Jul-20 04:31N 53°26' W 003°00'1 0.8
2015-Jul-20 03:33N 53°26' W 003°01'1 0.7
2015-Jul-20 02:33N 53°27' W 003°02'8 7.8
2015-Jul-20 01:33N 53°31' W 003°12'9 9.3
2015-Jul-20 00:33N 53°31' W 003°28'1010.4
2015-Jul-19 23:33N 53°28' W 003°45'  
2015-Jul-14 08:33N 47°22' W 004°25'9 9.1
2015-Jul-14 07:33N 47°17' W 004°13'9 9.2
2015-Jul-14 06:32N 47°12' W 004°02'10 9.2
2015-Jul-14 05:27N 47°07' W 003°49'8 9.0
2015-Jul-14 04:33N 47°03' W 003°39'10 8.7
2015-Jul-14 03:24N 46°57' W 003°27'8 8.7
2015-Jul-14 02:32N 46°53' W 003°18'9 8.4
2015-Jul-14 01:28N 46°49' W 003°06'8 8.3
2015-Jul-14 00:32N 46°45' W 002°57'17 8.5
2015-Jul-13 22:29N 46°35' W 002°35'8 8.7
2015-Jul-13 21:33N 46°31' W 002°25'9 8.6
2015-Jul-13 20:33N 46°26' W 002°15'9 9.0
2015-Jul-13 19:33N 46°22' W 002°04'9 9.2
2015-Jul-13 18:32N 46°16' W 001°52'9 9.1
2015-Jul-13 17:33N 46°12' W 001°42'10 9.6
2015-Jul-13 16:33N 46°07' W 001°29'10 9.9
2015-Jul-13 15:33N 46°05' W 001°16'9 9.0
2015-Jul-13 14:32N 45°58' W 001°06'4 0.1
2015-Jul-12 10:13N 45°58' W 001°01'6 9.4
2015-Jul-12 09:33N 45°60' W 001°10'5 5.4
2015-Jul-12 08:33N 46°04' W 001°13'0 0.0
2015-Jul-12 07:33N 46°04' W 001°13'0 0.0
2015-Jul-12 06:33N 46°04' W 001°13'0 0.1
2015-Jul-12 05:27N 46°04' W 001°13'0 0.0
2015-Jul-12 04:33N 46°04' W 001°13'0 0.1
2015-Jul-12 03:33N 46°04' W 001°13'0 0.1
2015-Jul-12 02:33N 46°04' W 001°13'0 0.0
2015-Jul-12 01:33N 46°04' W 001°13'  
Track history (hours):
 
Tides and Currents Weather Stations Pressure Air Temp Water Temp Dewpoint Dewpoint Depression Visibility Wind Speed Wind Dir Waves Ship Positions

Parma

Last reported at 2015-Jul-22 00:33 UTC. Time now 2015-Aug-04 07:26 UTC.
Position N 53°26' W 004°03'.
Warning: this ship's position is 13 days out of date.

MMSI: 279073176.

Date/timePositionNaut miles runAvg speedWind from/ knotsBaromVisibWave heightAir tempDewpointWater temp
2015-Jul-22 00:33N 53°26' W 004°03'9 9.0
2015-Jul-21 23:33N 53°31' W 003°51'9 8.6
2015-Jul-21 22:33N 53°33' W 003°37'9 9.3
2015-Jul-21 21:33N 53°32' W 003°22'9 9.2
2015-Jul-21 20:33N 53°31' W 003°06'6 5.7
2015-Jul-21 19:33N 53°26' W 003°01'1 0.6
2015-Jul-21 18:31N 53°26' W 003°00'0 0.2
2015-Jul-21 17:31N 53°26' W 003°00'0 0.0
2015-Jul-21 16:28N 53°26' W 003°00'0 0.0
2015-Jul-21 15:31N 53°26' W 003°00'0 0.0
2015-Jul-21 14:31N 53°26' W 003°00'0 0.0
2015-Jul-21 13:28N 53°26' W 003°00'0 0.0
2015-Jul-21 12:31N 53°26' W 003°00'0 0.0
2015-Jul-21 11:28N 53°26' W 003°00'0 0.0
2015-Jul-21 10:25N 53°26' W 003°00'0 0.0
2015-Jul-21 09:28N 53°26' W 003°00'0 0.0
2015-Jul-21 08:31N 53°26' W 003°00'0 0.0
2015-Jul-21 07:31N 53°26' W 003°00'0 0.0
2015-Jul-21 06:28N 53°26' W 003°00'0 0.0
2015-Jul-21 05:31N 53°26' W 003°00'0 0.0
2015-Jul-21 04:31N 53°26' W 003°00'0 0.0
2015-Jul-21 03:31N 53°26' W 003°00'0 0.0
2015-Jul-21 02:28N 53°26' W 003°00'0 0.0
2015-Jul-21 01:31N 53°26' W 003°00'0 0.0
2015-Jul-21 00:31N 53°26' W 003°00'0 0.0
2015-Jul-20 23:25N 53°26' W 003°00'0 0.0
2015-Jul-20 22:31N 53°26' W 003°00'0 0.0
2015-Jul-20 21:31N 53°26' W 003°00'0 0.0
2015-Jul-20 20:31N 53°26' W 003°00'0 0.0
2015-Jul-20 19:25N 53°26' W 003°00'0 0.0
2015-Jul-20 18:28N 53°26' W 003°00'0 0.0
2015-Jul-20 17:31N 53°26' W 003°00'0 0.0
2015-Jul-20 16:28N 53°26' W 003°00'0 0.0
2015-Jul-20 15:31N 53°26' W 003°00'0 0.0
2015-Jul-20 14:31N 53°26' W 003°00'0 0.0
2015-Jul-20 13:28N 53°26' W 003°00'0 0.0
2015-Jul-20 12:31N 53°26' W 003°00'0 0.0
2015-Jul-20 11:31N 53°26' W 003°00'0 0.0
2015-Jul-20 10:25N 53°26' W 003°00'0 0.0
2015-Jul-20 09:31N 53°26' W 003°00'0 0.0
2015-Jul-20 08:31N 53°26' W 003°00'0 0.0
2015-Jul-20 07:31N 53°26' W 003°00'0 0.0
2015-Jul-20 06:25N 53°26' W 003°00'0 0.0
2015-Jul-20 05:31N 53°26' W 003°00'0 0.0
2015-Jul-20 04:31N 53°26' W 003°00'1 0.8
2015-Jul-20 03:33N 53°26' W 003°01'1 0.7
2015-Jul-20 02:33N 53°27' W 003°02'8 7.8
2015-Jul-20 01:33N 53°31' W 003°12'9 9.3
2015-Jul-20 00:33N 53°31' W 003°28'1010.4
2015-Jul-19 23:33N 53°28' W 003°45'  
2015-Jul-14 08:33N 47°22' W 004°25'9 9.1
2015-Jul-14 07:33N 47°17' W 004°13'9 9.2
2015-Jul-14 06:32N 47°12' W 004°02'10 9.2
2015-Jul-14 05:27N 47°07' W 003°49'8 9.0
2015-Jul-14 04:33N 47°03' W 003°39'10 8.7
2015-Jul-14 03:24N 46°57' W 003°27'8 8.7
2015-Jul-14 02:32N 46°53' W 003°18'9 8.4
2015-Jul-14 01:28N 46°49' W 003°06'8 8.3
2015-Jul-14 00:32N 46°45' W 002°57'17 8.5
2015-Jul-13 22:29N 46°35' W 002°35'8 8.7
2015-Jul-13 21:33N 46°31' W 002°25'9 8.6
2015-Jul-13 20:33N 46°26' W 002°15'9 9.0
2015-Jul-13 19:33N 46°22' W 002°04'9 9.2
2015-Jul-13 18:32N 46°16' W 001°52'9 9.1
2015-Jul-13 17:33N 46°12' W 001°42'10 9.6
2015-Jul-13 16:33N 46°07' W 001°29'10 9.9
2015-Jul-13 15:33N 46°05' W 001°16'9 9.0
2015-Jul-13 14:32N 45°58' W 001°06'4 0.1
2015-Jul-12 10:13N 45°58' W 001°01'6 9.4
2015-Jul-12 09:33N 45°60' W 001°10'5 5.4
2015-Jul-12 08:33N 46°04' W 001°13'0 0.0
2015-Jul-12 07:33N 46°04' W 001°13'0 0.0
2015-Jul-12 06:33N 46°04' W 001°13'0 0.1
2015-Jul-12 05:27N 46°04' W 001°13'0 0.0
2015-Jul-12 04:33N 46°04' W 001°13'0 0.1
2015-Jul-12 03:33N 46°04' W 001°13'0 0.1
2015-Jul-12 02:33N 46°04' W 001°13'0 0.0
2015-Jul-12 01:33N 46°04' W 001°13'  

Dump ship's entire track history